Time,TemperatureF,DewpointF,PressureIn,WindDirection,WindDirectionDegrees,WindSpeedMPH,WindSpeedGustMPH,Humidity,HourlyPrecipIn,Conditions,Clouds,dailyrainin,SoftwareType,DateUTC
2013-01-10 14:00:00,47.0,19.0,30.45,NNW,345,10.0,19.0,33,-99.99,,,-99.99,,2013-01-10 19:00:00,
2013-01-10 14:23:00,47.0,19.0,30.45,NNW,345,10.0,19.0,33,-99.99,,,-99.99,,2013-01-10 19:23:00,
2013-01-10 14:33:00,47.0,19.0,30.45,NNW,345,10.0,19.0,33,-99.99,,,-99.99,,2013-01-10 19:33:00,
2013-01-10 14:43:00,47.0,19.0,30.45,NNW,345,10.0,19.0,33,-99.99,,,-99.99,,2013-01-10 19:43:00,
2013-01-10 14:53:00,47.0,19.0,30.45,NNW,345,10.0,19.0,33,-99.99,,,-99.99,,2013-01-10 19:53:00,
2013-01-10 15:24:00,47.0,20.0,30.45,North,354,5.0,16.0,33,-99.99,,,-99.99,,2013-01-10 20:24:00,
2013-01-10 15:33:00,47.0,20.0,30.45,North,354,5.0,16.0,33,-99.99,,,-99.99,,2013-01-10 20:33:00,
2013-01-10 15:43:00,47.0,20.0,30.45,North,354,5.0,16.0,33,-99.99,,,-99.99,,2013-01-10 20:43:00,
2013-01-10 15:53:00,47.0,20.0,30.45,North,354,5.0,16.0,33,-99.99,,,-99.99,,2013-01-10 20:53:00,
2013-01-10 16:00:00,46.0,20.0,30.47,NW,324,6.0,14.0,34,-99.99,,,-99.99,,2013-01-10 21:00:00,
2013-01-10 16:23:00,46.0,20.0,30.47,NW,324,6.0,14.0,34,-99.99,,,-99.99,,2013-01-10 21:23:00,
2013-01-10 16:33:00,46.0,20.0,30.47,NW,324,6.0,14.0,34,-99.99,,,-99.99,,2013-01-10 21:33:00,
2013-01-10 16:43:00,46.0,20.0,30.47,NW,324,6.0,14.0,34,-99.99,,,-99.99,,2013-01-10 21:43:00,
2013-01-10 16:53:00,46.0,20.0,30.47,NW,324,6.0,14.0,34,-99.99,,,-99.99,,2013-01-10 21:53:00,
2013-01-10 17:00:00,44.0,21.0,30.47,NW,324,3.0,13.0,40,-99.99,,,-99.99,,2013-01-10 22:00:00,
2013-01-10 17:27:00,44.0,21.0,30.47,NW,324,3.0,13.0,40,-99.99,,,-99.99,,2013-01-10 22:27:00,
2013-01-10 17:34:00,44.0,21.0,30.47,NW,324,3.0,13.0,40,-99.99,,,-99.99,,2013-01-10 22:34:00,
2013-01-10 17:44:00,44.0,21.0,30.47,NW,324,3.0,13.0,40,-99.99,,,-99.99,,2013-01-10 22:44:00,
2013-01-10 18:00:00,39.0,23.0,30.47,NNW,327,0.0,6.0,51,-99.99,,,-99.99,,2013-01-10 23:00:00,
2013-01-10 18:23:00,39.0,23.0,30.47,NNW,327,0.0,6.0,51,-99.99,,,-99.99,,2013-01-10 23:23:00,
2013-01-10 18:33:00,39.0,23.0,30.47,NNW,327,0.0,6.0,51,-99.99,,,-99.99,,2013-01-10 23:33:00,
2013-01-10 18:43:00,39.0,23.0,30.47,NNW,327,0.0,6.0,51,-99.99,,,-99.99,,2013-01-10 23:43:00,
2013-01-10 18:53:00,39.0,23.0,30.47,NNW,327,0.0,6.0,51,-99.99,,,-99.99,,2013-01-10 23:53:00,
2013-01-10 19:00:00,38.0,23.0,30.50,SW,231,0.0,6.0,55,-99.99,,,-99.99,,2013-01-11 00:00:00,
2013-01-10 19:23:00,38.0,23.0,30.50,SW,231,0.0,6.0,55,-99.99,,,-99.99,,2013-01-11 00:23:00,
2013-01-10 19:33:00,38.0,23.0,30.50,SW,231,0.0,6.0,55,-99.99,,,-99.99,,2013-01-11 00:33:00,
2013-01-10 19:43:00,38.0,23.0,30.50,SW,231,0.0,6.0,55,-99.99,,,-99.99,,2013-01-11 00:43:00,
2013-01-10 19:53:00,38.0,23.0,30.50,SW,231,0.0,6.0,55,-99.99,,,-99.99,,2013-01-11 00:53:00,
2013-01-10 20:00:00,34.0,24.0,30.50,ESE,116,0.0,0.0,65,-99.99,,,-99.99,,2013-01-11 01:00:00,
2013-01-10 20:24:00,34.0,24.0,30.50,ESE,116,0.0,0.0,65,-99.99,,,-99.99,,2013-01-11 01:24:00,
2013-01-10 20:34:00,34.0,24.0,30.50,ESE,116,0.0,0.0,65,-99.99,,,-99.99,,2013-01-11 01:34:00,
2013-01-10 20:43:00,34.0,24.0,30.50,ESE,116,0.0,0.0,65,-99.99,,,-99.99,,2013-01-11 01:43:00,
2013-01-10 20:53:00,34.0,24.0,30.50,ESE,116,0.0,0.0,65,-99.99,,,-99.99,,2013-01-11 01:53:00,
2013-01-10 21:00:00,33.0,24.0,30.50,West,264,0.0,5.0,68,-99.99,,,-99.99,,2013-01-11 02:00:00,
2013-01-10 21:24:00,33.0,24.0,30.50,West,264,0.0,5.0,68,-99.99,,,-99.99,,2013-01-11 02:24:00,
2013-01-10 21:33:00,33.0,24.0,30.50,West,264,0.0,5.0,68,-99.99,,,-99.99,,2013-01-11 02:33:00,
2013-01-10 21:44:00,33.0,24.0,30.50,West,264,0.0,5.0,68,-99.99,,,-99.99,,2013-01-11 02:44:00,
2013-01-10 21:54:00,33.0,24.0,30.50,West,264,0.0,5.0,68,-99.99,,,-99.99,,2013-01-11 02:54:00,
2013-01-10 22:00:00,31.0,24.0,30.50,SSW,202,0.0,0.0,75,-99.99,,,-99.99,,2013-01-11 03:00:00,
2013-01-10 22:23:00,31.0,24.0,30.50,SSW,202,0.0,0.0,75,-99.99,,,-99.99,,2013-01-11 03:23:00,
2013-01-10 22:33:00,31.0,24.0,30.50,SSW,202,0.0,0.0,75,-99.99,,,-99.99,,2013-01-11 03:33:00,
2013-01-10 22:43:00,31.0,24.0,30.50,SSW,202,0.0,0.0,75,-99.99,,,-99.99,,2013-01-11 03:43:00,
2013-01-10 22:53:00,31.0,24.0,30.50,SSW,202,0.0,0.0,75,-99.99,,,-99.99,,2013-01-11 03:53:00,
2013-01-10 23:00:00,30.0,24.0,30.50,WNW,294,0.0,0.0,77,-99.99,,,-99.99,,2013-01-11 04:00:00,
2013-01-10 23:23:00,30.0,24.0,30.50,WNW,294,0.0,0.0,77,-99.99,,,-99.99,,2013-01-11 04:23:00,
2013-01-10 23:33:00,30.0,24.0,30.50,WNW,294,0.0,0.0,77,-99.99,,,-99.99,,2013-01-11 04:33:00,
2013-01-10 23:43:00,30.0,24.0,30.50,WNW,294,0.0,0.0,77,-99.99,,,-99.99,,2013-01-11 04:43:00,
2013-01-10 23:53:00,30.0,24.0,30.50,WNW,294,0.0,0.0,77,-99.99,,,-99.99,,2013-01-11 04:53:00,